sensor_id;sensor_type;location;lat;lon;timestamp;temperature;humidity
322;DHT22;148;51.480;7.208;2024-03-07T08:30:28;5.90;99.90
322;DHT22;148;51.480;7.208;2024-03-07T08:32:55;6.30;99.90
322;DHT22;148;51.480;7.208;2024-03-07T08:35:22;6.80;99.90
322;DHT22;148;51.480;7.208;2024-03-07T08:37:48;7.30;99.90
322;DHT22;148;51.480;7.208;2024-03-07T08:40:21;7.70;3.40
322;DHT22;148;51.480;7.208;2024-03-07T08:42:48;8.10;15.30
322;DHT22;148;51.480;7.208;2024-03-07T08:45:14;8.50;23.40
322;DHT22;148;51.480;7.208;2024-03-07T08:47:45;8.80;30.10
322;DHT22;148;51.480;7.208;2024-03-07T08:50:11;9.00;37.00
322;DHT22;148;51.480;7.208;2024-03-07T08:52:38;9.00;40.70
322;DHT22;148;51.480;7.208;2024-03-07T08:55:05;9.20;43.90
322;DHT22;148;51.480;7.208;2024-03-07T08:57:30;9.40;44.10
322;DHT22;148;51.480;7.208;2024-03-07T08:59:56;9.20;47.40
322;DHT22;148;51.480;7.208;2024-03-07T09:02:22;9.00;47.20
322;DHT22;148;51.480;7.208;2024-03-07T09:04:47;8.90;48.00
322;DHT22;148;51.480;7.208;2024-03-07T09:07:13;8.50;45.10
322;DHT22;148;51.480;7.208;2024-03-07T09:09:40;8.50;42.50
322;DHT22;148;51.480;7.208;2024-03-07T09:12:08;8.70;43.10
322;DHT22;148;51.480;7.208;2024-03-07T09:14:34;9.00;45.50
322;DHT22;148;51.480;7.208;2024-03-07T09:17:01;9.00;47.80
322;DHT22;148;51.480;7.208;2024-03-07T09:19:26;9.20;50.10
322;DHT22;148;51.480;7.208;2024-03-07T09:21:52;9.30;49.60
322;DHT22;148;51.480;7.208;2024-03-07T09:24:18;9.60;51.20
322;DHT22;148;51.480;7.208;2024-03-07T09:26:50;9.80;51.80
322;DHT22;148;51.480;7.208;2024-03-07T09:29:16;9.80;53.20
322;DHT22;148;51.480;7.208;2024-03-07T09:31:41;9.80;54.40
322;DHT22;148;51.480;7.208;2024-03-07T09:34:07;9.90;54.50
322;DHT22;148;51.480;7.208;2024-03-07T09:36:33;10.00;54.10
322;DHT22;148;51.480;7.208;2024-03-07T09:38:59;10.00;56.60
322;DHT22;148;51.480;7.208;2024-03-07T09:41:24;9.90;54.50
322;DHT22;148;51.480;7.208;2024-03-07T09:43:53;10.00;56.70
322;DHT22;148;51.480;7.208;2024-03-07T09:46:21;10.30;56.00
322;DHT22;148;51.480;7.208;2024-03-07T09:48:46;10.40;56.90
322;DHT22;148;51.480;7.208;2024-03-07T09:51:12;10.50;58.00
322;DHT22;148;51.480;7.208;2024-03-07T09:53:42;10.70;58.50
322;DHT22;148;51.480;7.208;2024-03-07T09:56:09;10.70;59.40
322;DHT22;148;51.480;7.208;2024-03-07T09:58:40;10.80;59.40
322;DHT22;148;51.480;7.208;2024-03-07T10:01:06;10.70;59.60
322;DHT22;148;51.480;7.208;2024-03-07T10:03:35;10.90;60.00
322;DHT22;148;51.480;7.208;2024-03-07T10:06:01;11.10;60.40
322;DHT22;148;51.480;7.208;2024-03-07T10:08:26;10.60;61.00
322;DHT22;148;51.480;7.208;2024-03-07T10:10:54;10.40;60.90
322;DHT22;148;51.480;7.208;2024-03-07T10:13:21;10.40;60.50
322;DHT22;148;51.480;7.208;2024-03-07T10:15:48;10.30;61.10
322;DHT22;148;51.480;7.208;2024-03-07T10:18:15;10.40;61.10
322;DHT22;148;51.480;7.208;2024-03-07T10:20:42;10.50;61.20
322;DHT22;148;51.480;7.208;2024-03-07T10:23:09;10.40;60.90
322;DHT22;148;51.480;7.208;2024-03-07T10:25:34;10.70;60.80
322;DHT22;148;51.480;7.208;2024-03-07T10:28:01;10.90;60.80
322;DHT22;148;51.480;7.208;2024-03-07T10:30:29;11.00;61.00
322;DHT22;148;51.480;7.208;2024-03-07T10:32:57;11.10;61.40
322;DHT22;148;51.480;7.208;2024-03-07T10:35:26;11.20;61.70
322;DHT22;148;51.480;7.208;2024-03-07T10:37:55;11.40;61.70
322;DHT22;148;51.480;7.208;2024-03-07T10:40:22;11.50;61.70
322;DHT22;148;51.480;7.208;2024-03-07T10:42:49;11.60;61.80
322;DHT22;148;51.480;7.208;2024-03-07T10:45:21;11.50;62.00
322;DHT22;148;51.480;7.208;2024-03-07T10:47:54;11.30;62.00
322;DHT22;148;51.480;7.208;2024-03-07T10:53:10;11.50;61.80
322;DHT22;148;51.480;7.208;2024-03-07T10:55:52;11.70;62.00
322;DHT22;148;51.480;7.208;2024-03-07T11:01:10;11.70;62.00
322;DHT22;148;51.480;7.208;2024-03-07T11:03:36;12.00;62.10
322;DHT22;148;51.480;7.208;2024-03-07T11:06:02;12.00;62.10
322;DHT22;148;51.480;7.208;2024-03-07T11:08:34;12.00;62.20
322;DHT22;148;51.480;7.208;2024-03-07T11:11:00;11.80;62.20
322;DHT22;148;51.480;7.208;2024-03-07T11:13:26;11.90;62.20
322;DHT22;148;51.480;7.208;2024-03-07T11:15:51;11.70;62.30
322;DHT22;148;51.480;7.208;2024-03-07T11:18:19;11.70;62.00
322;DHT22;148;51.480;7.208;2024-03-07T11:20:44;11.80;62.00
322;DHT22;148;51.480;7.208;2024-03-07T11:23:27;11.80;61.80
322;DHT22;148;51.480;7.208;2024-03-07T11:26:04;11.90;61.80
322;DHT22;148;51.480;7.208;2024-03-07T11:28:34;12.00;61.90
322;DHT22;148;51.480;7.208;2024-03-07T11:31:27;12.30;61.80
322;DHT22;148;51.480;7.208;2024-03-07T11:34:14;12.40;61.90
322;DHT22;148;51.480;7.208;2024-03-07T11:36:44;12.60;61.90
322;DHT22;148;51.480;7.208;2024-03-07T11:41:56;12.60;62.80
322;DHT22;148;51.480;7.208;2024-03-07T11:44:22;12.60;62.90
322;DHT22;148;51.480;7.208;2024-03-07T11:46:48;12.60;63.00
322;DHT22;148;51.480;7.208;2024-03-07T11:49:13;12.40;62.90
322;DHT22;148;51.480;7.208;2024-03-07T11:51:41;12.60;62.90
322;DHT22;148;51.480;7.208;2024-03-07T11:54:06;12.70;62.90
322;DHT22;148;51.480;7.208;2024-03-07T11:56:32;12.70;63.10
322;DHT22;148;51.480;7.208;2024-03-07T11:58:58;12.60;62.90
322;DHT22;148;51.480;7.208;2024-03-07T12:01:26;12.10;63.00
322;DHT22;148;51.480;7.208;2024-03-07T12:03:54;11.70;62.90
322;DHT22;148;51.480;7.208;2024-03-07T15:27:08;10.40;63.30
322;DHT22;148;51.480;7.208;2024-03-07T15:29:36;10.60;63.10
322;DHT22;148;51.480;7.208;2024-03-07T15:32:01;11.10;63.00
322;DHT22;148;51.480;7.208;2024-03-07T15:34:28;11.40;63.00
322;DHT22;148;51.480;7.208;2024-03-07T15:37:00;11.70;62.90
322;DHT22;148;51.480;7.208;2024-03-07T15:39:27;11.90;62.90
322;DHT22;148;51.480;7.208;2024-03-07T15:41:55;11.80;63.00
322;DHT22;148;51.480;7.208;2024-03-07T15:44:21;12.00;63.20
322;DHT22;148;51.480;7.208;2024-03-07T15:46:46;12.00;62.80
322;DHT22;148;51.480;7.208;2024-03-07T15:49:12;12.00;63.00
322;DHT22;148;51.480;7.208;2024-03-07T15:51:38;11.80;63.10
322;DHT22;148;51.480;7.208;2024-03-07T15:54:04;11.60;63.30
322;DHT22;148;51.480;7.208;2024-03-07T15:56:30;11.60;63.50
322;DHT22;148;51.480;7.208;2024-03-07T15:58:55;11.50;63.20
322;DHT22;148;51.480;7.208;2024-03-07T16:01:21;11.60;63.40
322;DHT22;148;51.480;7.208;2024-03-07T16:03:47;11.70;63.20
322;DHT22;148;51.480;7.208;2024-03-07T16:06:12;11.80;63.10
322;DHT22;148;51.480;7.208;2024-03-07T16:08:41;12.00;63.20
322;DHT22;148;51.480;7.208;2024-03-07T16:11:08;12.00;63.10
322;DHT22;148;51.480;7.208;2024-03-07T16:13:34;12.00;63.20
322;DHT22;148;51.480;7.208;2024-03-07T16:16:00;12.20;63.10
322;DHT22;148;51.480;7.208;2024-03-07T16:18:30;12.20;63.00
322;DHT22;148;51.480;7.208;2024-03-07T16:20:55;12.30;63.00
322;DHT22;148;51.480;7.208;2024-03-07T16:23:24;12.20;63.00
322;DHT22;148;51.480;7.208;2024-03-07T16:25:50;12.40;62.90
322;DHT22;148;51.480;7.208;2024-03-07T16:28:16;12.30;63.00
322;DHT22;148;51.480;7.208;2024-03-07T16:30:46;12.10;63.10
322;DHT22;148;51.480;7.208;2024-03-07T16:33:12;12.10;63.10
322;DHT22;148;51.480;7.208;2024-03-07T16:35:39;12.10;63.30
322;DHT22;148;51.480;7.208;2024-03-07T16:38:07;12.30;63.00
322;DHT22;148;51.480;7.208;2024-03-07T16:40:34;12.10;63.00
322;DHT22;148;51.480;7.208;2024-03-07T16:43:00;12.10;63.20
322;DHT22;148;51.480;7.208;2024-03-07T16:45:27;12.10;63.30
322;DHT22;148;51.480;7.208;2024-03-07T16:47:53;12.20;63.10
322;DHT22;148;51.480;7.208;2024-03-07T16:50:20;12.20;63.10
322;DHT22;148;51.480;7.208;2024-03-07T16:52:47;12.20;63.10
322;DHT22;148;51.480;7.208;2024-03-07T16:55:13;12.20;63.00
322;DHT22;148;51.480;7.208;2024-03-07T16:57:45;12.00;63.00
322;DHT22;148;51.480;7.208;2024-03-07T17:00:15;11.90;63.20
322;DHT22;148;51.480;7.208;2024-03-07T17:02:56;11.80;63.40
322;DHT22;148;51.480;7.208;2024-03-07T17:05:27;11.90;63.40
322;DHT22;148;51.480;7.208;2024-03-07T17:07:53;11.80;63.30
322;DHT22;148;51.480;7.208;2024-03-07T17:10:19;11.50;63.60
322;DHT22;148;51.480;7.208;2024-03-07T17:12:46;11.40;63.80
322;DHT22;148;51.480;7.208;2024-03-07T17:15:13;11.40;63.70
322;DHT22;148;51.480;7.208;2024-03-07T17:17:46;11.40;63.60
322;DHT22;148;51.480;7.208;2024-03-07T17:20:13;11.20;63.80
322;DHT22;148;51.480;7.208;2024-03-07T17:22:39;11.20;63.80
322;DHT22;148;51.480;7.208;2024-03-07T17:25:05;10.90;63.90
322;DHT22;148;51.480;7.208;2024-03-07T17:27:31;10.80;63.90
322;DHT22;148;51.480;7.208;2024-03-07T17:29:57;10.70;63.80
322;DHT22;148;51.480;7.208;2024-03-07T17:32:26;10.90;63.80
322;DHT22;148;51.480;7.208;2024-03-07T17:34:54;11.10;63.60
322;DHT22;148;51.480;7.208;2024-03-07T17:37:19;11.00;63.50
322;DHT22;148;51.480;7.208;2024-03-07T17:39:45;11.10;63.60
322;DHT22;148;51.480;7.208;2024-03-07T17:42:12;10.80;63.60
322;DHT22;148;51.480;7.208;2024-03-07T17:44:38;10.90;63.80
322;DHT22;148;51.480;7.208;2024-03-07T17:47:04;10.90;63.60
322;DHT22;148;51.480;7.208;2024-03-07T17:49:38;11.00;63.60
322;DHT22;148;51.480;7.208;2024-03-07T17:52:09;11.10;63.60
322;DHT22;148;51.480;7.208;2024-03-07T17:54:38;11.00;63.50
322;DHT22;148;51.480;7.208;2024-03-07T17:57:15;11.00;63.50
322;DHT22;148;51.480;7.208;2024-03-07T17:59:42;11.10;63.60
322;DHT22;148;51.480;7.208;2024-03-07T18:02:15;11.20;63.50
322;DHT22;148;51.480;7.208;2024-03-07T18:04:45;11.20;63.50
322;DHT22;148;51.480;7.208;2024-03-07T18:07:18;11.10;63.40
322;DHT22;148;51.480;7.208;2024-03-07T18:09:47;11.10;63.40
322;DHT22;148;51.480;7.208;2024-03-07T18:12:13;11.00;63.60
322;DHT22;148;51.480;7.208;2024-03-07T18:14:41;10.90;63.70
322;DHT22;148;51.480;7.208;2024-03-07T18:17:09;11.00;63.70
322;DHT22;148;51.480;7.208;2024-03-07T18:19:35;11.00;63.70
322;DHT22;148;51.480;7.208;2024-03-07T18:22:03;10.90;63.80
322;DHT22;148;51.480;7.208;2024-03-07T18:24:30;10.90;63.80
322;DHT22;148;51.480;7.208;2024-03-07T18:26:56;10.80;63.90
322;DHT22;148;51.480;7.208;2024-03-07T18:29:21;10.70;63.90
322;DHT22;148;51.480;7.208;2024-03-07T18:31:47;10.60;63.90
322;DHT22;148;51.480;7.208;2024-03-07T18:34:13;10.50;63.90
322;DHT22;148;51.480;7.208;2024-03-07T18:36:38;10.60;63.90
322;DHT22;148;51.480;7.208;2024-03-07T18:39:06;10.60;63.80
322;DHT22;148;51.480;7.208;2024-03-07T18:41:41;10.60;63.90
322;DHT22;148;51.480;7.208;2024-03-07T18:44:08;10.60;63.80
322;DHT22;148;51.480;7.208;2024-03-07T18:46:34;10.60;63.70
322;DHT22;148;51.480;7.208;2024-03-07T18:49:00;10.70;63.70
322;DHT22;148;51.480;7.208;2024-03-07T18:51:34;10.60;63.70
322;DHT22;148;51.480;7.208;2024-03-07T18:54:03;10.50;63.80
322;DHT22;148;51.480;7.208;2024-03-07T18:56:32;10.40;63.70
322;DHT22;148;51.480;7.208;2024-03-07T18:58:57;10.60;63.60
322;DHT22;148;51.480;7.208;2024-03-07T19:01:29;10.50;63.60
322;DHT22;148;51.480;7.208;2024-03-07T19:03:55;10.50;63.70
322;DHT22;148;51.480;7.208;2024-03-07T19:06:20;10.40;63.70
322;DHT22;148;51.480;7.208;2024-03-07T19:08:48;10.50;63.70
322;DHT22;148;51.480;7.208;2024-03-07T19:11:14;10.40;63.70
322;DHT22;148;51.480;7.208;2024-03-07T19:13:40;10.40;63.70
322;DHT22;148;51.480;7.208;2024-03-07T19:16:06;10.50;63.70
322;DHT22;148;51.480;7.208;2024-03-07T19:18:34;10.40;63.70
322;DHT22;148;51.480;7.208;2024-03-07T19:21:00;10.40;63.70
322;DHT22;148;51.480;7.208;2024-03-07T19:23:34;10.20;63.80
322;DHT22;148;51.480;7.208;2024-03-07T19:26:01;10.00;63.80
322;DHT22;148;51.480;7.208;2024-03-07T19:28:29;10.00;63.80
322;DHT22;148;51.480;7.208;2024-03-07T19:31:00;10.00;63.50
322;DHT22;148;51.480;7.208;2024-03-07T19:33:25;10.10;63.60
322;DHT22;148;51.480;7.208;2024-03-07T19:35:51;10.10;63.60
322;DHT22;148;51.480;7.208;2024-03-07T19:38:23;10.10;63.60
322;DHT22;148;51.480;7.208;2024-03-07T19:40:49;10.00;63.70
322;DHT22;148;51.480;7.208;2024-03-07T19:43:15;10.00;63.70
322;DHT22;148;51.480;7.208;2024-03-07T19:45:41;9.90;63.60
322;DHT22;148;51.480;7.208;2024-03-07T19:48:10;9.70;63.70
322;DHT22;148;51.480;7.208;2024-03-07T19:50:35;9.70;63.50
322;DHT22;148;51.480;7.208;2024-03-07T19:53:05;9.80;63.70
322;DHT22;148;51.480;7.208;2024-03-07T19:55:38;9.90;63.50
322;DHT22;148;51.480;7.208;2024-03-07T19:58:04;9.90;63.50
322;DHT22;148;51.480;7.208;2024-03-07T20:00:32;9.70;63.60
322;DHT22;148;51.480;7.208;2024-03-07T20:02:59;9.70;63.50
322;DHT22;148;51.480;7.208;2024-03-07T20:05:24;9.90;62.10
322;DHT22;148;51.480;7.208;2024-03-07T20:07:57;9.90;63.10
322;DHT22;148;51.480;7.208;2024-03-07T20:10:23;10.00;63.30
322;DHT22;148;51.480;7.208;2024-03-07T20:12:50;9.90;63.50
322;DHT22;148;51.480;7.208;2024-03-07T20:15:16;9.90;63.50
322;DHT22;148;51.480;7.208;2024-03-07T20:17:44;9.90;63.40
322;DHT22;148;51.480;7.208;2024-03-07T20:20:10;9.90;63.60
322;DHT22;148;51.480;7.208;2024-03-07T20:22:42;9.90;63.40
322;DHT22;148;51.480;7.208;2024-03-07T20:25:14;9.90;63.60
322;DHT22;148;51.480;7.208;2024-03-07T20:30:06;9.90;63.70
322;DHT22;148;51.480;7.208;2024-03-07T20:32:32;9.80;63.70
322;DHT22;148;51.480;7.208;2024-03-07T20:35:03;9.80;63.70
322;DHT22;148;51.480;7.208;2024-03-07T20:37:40;9.70;63.80
322;DHT22;148;51.480;7.208;2024-03-07T20:40:06;9.50;64.00
322;DHT22;148;51.480;7.208;2024-03-07T20:42:35;9.50;64.10
322;DHT22;148;51.480;7.208;2024-03-07T20:45:04;9.60;63.90
322;DHT22;148;51.480;7.208;2024-03-07T20:47:51;9.80;63.90
322;DHT22;148;51.480;7.208;2024-03-07T20:50:24;9.80;63.80
322;DHT22;148;51.480;7.208;2024-03-07T20:52:52;9.90;63.90
322;DHT22;148;51.480;7.208;2024-03-07T20:55:18;9.70;63.80
322;DHT22;148;51.480;7.208;2024-03-07T20:57:48;9.50;64.10
322;DHT22;148;51.480;7.208;2024-03-07T21:00:19;9.60;64.10
322;DHT22;148;51.480;7.208;2024-03-07T21:02:50;9.50;64.20
322;DHT22;148;51.480;7.208;2024-03-07T21:05:23;9.50;64.00
322;DHT22;148;51.480;7.208;2024-03-07T21:07:51;9.40;64.00
322;DHT22;148;51.480;7.208;2024-03-07T21:10:21;9.40;64.10
322;DHT22;148;51.480;7.208;2024-03-07T21:12:54;9.30;64.10
322;DHT22;148;51.480;7.208;2024-03-07T21:15:20;9.30;64.20
322;DHT22;148;51.480;7.208;2024-03-07T21:17:46;9.20;64.20
322;DHT22;148;51.480;7.208;2024-03-07T21:20:13;9.40;64.20
322;DHT22;148;51.480;7.208;2024-03-07T21:22:46;9.20;64.10
322;DHT22;148;51.480;7.208;2024-03-07T21:25:16;9.10;64.20
322;DHT22;148;51.480;7.208;2024-03-07T21:27:42;9.10;64.30
322;DHT22;148;51.480;7.208;2024-03-07T21:30:09;9.10;64.20
322;DHT22;148;51.480;7.208;2024-03-07T21:32:35;9.20;64.00
322;DHT22;148;51.480;7.208;2024-03-07T21:35:01;9.00;64.10
322;DHT22;148;51.480;7.208;2024-03-07T21:37:30;9.10;64.20
322;DHT22;148;51.480;7.208;2024-03-07T21:39:56;9.10;64.00
322;DHT22;148;51.480;7.208;2024-03-07T21:42:24;9.10;63.90
322;DHT22;148;51.480;7.208;2024-03-07T21:44:50;9.00;63.90
322;DHT22;148;51.480;7.208;2024-03-07T21:47:16;9.10;63.80
322;DHT22;148;51.480;7.208;2024-03-07T21:49:41;9.00;63.90
322;DHT22;148;51.480;7.208;2024-03-07T21:52:11;9.00;63.60
322;DHT22;148;51.480;7.208;2024-03-07T21:54:39;9.00;63.50
322;DHT22;148;51.480;7.208;2024-03-07T21:57:05;8.90;63.70
322;DHT22;148;51.480;7.208;2024-03-07T21:59:38;8.90;63.80
322;DHT22;148;51.480;7.208;2024-03-07T22:02:04;8.80;63.70
322;DHT22;148;51.480;7.208;2024-03-07T22:04:31;8.90;64.10
322;DHT22;148;51.480;7.208;2024-03-07T22:06:57;8.90;64.00
322;DHT22;148;51.480;7.208;2024-03-07T22:09:23;8.90;64.10
322;DHT22;148;51.480;7.208;2024-03-07T22:11:49;8.90;64.10
322;DHT22;148;51.480;7.208;2024-03-07T22:14:17;8.70;63.80
322;DHT22;148;51.480;7.208;2024-03-07T22:16:52;8.60;64.10
322;DHT22;148;51.480;7.208;2024-03-07T22:19:22;8.50;64.30
322;DHT22;148;51.480;7.208;2024-03-07T22:21:48;8.40;64.50
322;DHT22;148;51.480;7.208;2024-03-07T22:24:14;8.40;64.40
322;DHT22;148;51.480;7.208;2024-03-07T22:26:40;8.30;64.20
322;DHT22;148;51.480;7.208;2024-03-07T22:29:07;8.30;64.60
322;DHT22;148;51.480;7.208;2024-03-07T22:31:39;8.30;64.30
322;DHT22;148;51.480;7.208;2024-03-07T22:34:08;8.40;64.20
322;DHT22;148;51.480;7.208;2024-03-07T22:36:33;8.40;64.40
322;DHT22;148;51.480;7.208;2024-03-07T22:38:59;8.40;64.10
322;DHT22;148;51.480;7.208;2024-03-07T22:41:25;8.30;64.10
322;DHT22;148;51.480;7.208;2024-03-07T22:43:51;8.10;64.40
322;DHT22;148;51.480;7.208;2024-03-07T22:46:16;8.30;64.60
322;DHT22;148;51.480;7.208;2024-03-07T22:48:43;8.30;64.60
322;DHT22;148;51.480;7.208;2024-03-07T22:51:08;8.30;64.40
322;DHT22;148;51.480;7.208;2024-03-07T22:53:36;8.40;64.40
322;DHT22;148;51.480;7.208;2024-03-07T22:56:03;8.40;64.50
322;DHT22;148;51.480;7.208;2024-03-07T22:58:30;8.30;64.50
322;DHT22;148;51.480;7.208;2024-03-07T23:00:56;8.30;64.70
322;DHT22;148;51.480;7.208;2024-03-07T23:03:21;8.30;64.80
322;DHT22;148;51.480;7.208;2024-03-07T23:05:48;8.30;64.80
322;DHT22;148;51.480;7.208;2024-03-07T23:08:14;8.20;65.00
322;DHT22;148;51.480;7.208;2024-03-07T23:10:42;8.20;64.80
322;DHT22;148;51.480;7.208;2024-03-07T23:13:07;8.20;64.80
322;DHT22;148;51.480;7.208;2024-03-07T23:15:33;8.10;64.80
322;DHT22;148;51.480;7.208;2024-03-07T23:17:59;8.00;65.00
322;DHT22;148;51.480;7.208;2024-03-07T23:20:25;8.10;64.90
322;DHT22;148;51.480;7.208;2024-03-07T23:22:52;8.10;64.90
322;DHT22;148;51.480;7.208;2024-03-07T23:25:21;8.00;64.90
322;DHT22;148;51.480;7.208;2024-03-07T23:27:47;8.10;64.80
322;DHT22;148;51.480;7.208;2024-03-07T23:30:13;8.10;64.80
322;DHT22;148;51.480;7.208;2024-03-07T23:32:45;8.00;64.80
322;DHT22;148;51.480;7.208;2024-03-07T23:35:11;7.90;64.80
322;DHT22;148;51.480;7.208;2024-03-07T23:37:39;7.70;64.70
322;DHT22;148;51.480;7.208;2024-03-07T23:40:06;7.60;65.10
322;DHT22;148;51.480;7.208;2024-03-07T23:42:31;7.70;65.00
322;DHT22;148;51.480;7.208;2024-03-07T23:44:57;7.90;65.00
322;DHT22;148;51.480;7.208;2024-03-07T23:47:23;7.90;64.70
322;DHT22;148;51.480;7.208;2024-03-07T23:49:49;7.80;64.80
322;DHT22;148;51.480;7.208;2024-03-07T23:52:14;7.70;65.00
322;DHT22;148;51.480;7.208;2024-03-07T23:54:41;7.80;64.80
322;DHT22;148;51.480;7.208;2024-03-07T23:57:07;7.70;64.80
322;DHT22;148;51.480;7.208;2024-03-07T23:59:33;7.70;64.90
